createdAt,value
2019-05-15T00:00:08.956Z,2.77
2019-05-15T00:02:38.719Z,1.33
2019-05-15T00:05:08.989Z,0.90
2019-05-15T00:07:39.093Z,1.10
2019-05-15T00:10:08.967Z,2.80
2019-05-15T00:12:39.508Z,1.10
2019-05-15T00:15:09.426Z,1.23
2019-05-15T00:17:39.359Z,1.50
2019-05-15T00:20:09.949Z,1.10
2019-05-15T00:22:39.220Z,1.17
2019-05-15T00:25:09.294Z,1.60
2019-05-15T00:27:38.752Z,1.93
2019-05-15T00:30:09.790Z,1.67
2019-05-15T00:32:39.336Z,0.70
2019-05-15T00:35:09.598Z,3.17
2019-05-15T00:37:38.996Z,2.33
2019-05-15T00:40:08.774Z,1.13
2019-05-15T00:42:38.390Z,0.73
2019-05-15T00:45:09.676Z,1.40
2019-05-15T00:47:39.657Z,2.27
2019-05-15T00:50:09.830Z,1.53
2019-05-15T00:52:39.435Z,5.17
2019-05-15T00:55:08.940Z,5.73
2019-05-15T00:57:39.157Z,1.00
2019-05-15T01:00:09.012Z,0.80
2019-05-15T01:02:38.847Z,1.23
2019-05-15T01:05:08.462Z,1.70
2019-05-15T01:07:39.252Z,0.63
2019-05-15T01:10:09.893Z,0.70
2019-05-15T01:12:38.725Z,1.47
2019-05-15T01:15:09.194Z,2.23
2019-05-15T01:17:39.111Z,0.77
2019-05-15T01:20:08.807Z,1.80
2019-05-15T01:22:39.467Z,2.93
2019-05-15T01:25:08.701Z,2.10
2019-05-15T01:27:38.643Z,0.63
2019-05-15T01:30:09.208Z,4.17
2019-05-15T01:32:39.571Z,1.90
2019-05-15T01:35:09.618Z,0.80
2019-05-15T01:37:39.022Z,1.23
2019-05-15T01:40:09.044Z,0.93
2019-05-15T01:42:38.780Z,3.27
2019-05-15T01:45:09.207Z,1.47
2019-05-15T01:47:38.829Z,0.80
2019-05-15T01:50:09.199Z,1.17
2019-05-15T01:52:38.918Z,2.73
2019-05-15T01:55:09.095Z,3.50
2019-05-15T01:57:38.724Z,2.97
2019-05-15T02:00:09.635Z,1.00
2019-05-15T02:02:39.155Z,2.07
2019-05-15T02:05:09.477Z,1.80
2019-05-15T02:07:39.010Z,2.80
2019-05-15T02:10:09.526Z,1.40
2019-05-15T02:12:38.891Z,1.10
2019-05-15T02:15:08.642Z,1.23
2019-05-15T02:17:39.164Z,1.50
2019-05-15T02:20:08.872Z,1.17
2019-05-15T02:22:42.130Z,1.40
2019-05-15T02:25:09.038Z,2.03
2019-05-15T02:27:39.330Z,2.10
2019-05-15T02:30:21.439Z,1.07
2019-05-15T02:32:40.073Z,1.30
2019-05-15T02:35:10.190Z,1.20
2019-05-15T02:37:41.110Z,3.97
2019-05-15T02:40:10.561Z,4.10
2019-05-15T02:42:40.225Z,1.30
2019-05-15T02:45:10.073Z,8.77
2019-05-15T02:47:39.933Z,1.53
2019-05-15T02:50:10.869Z,3.03
2019-05-15T02:52:44.910Z,3.87
2019-05-15T02:55:10.318Z,1.93
2019-05-15T02:57:39.582Z,4.70
2019-05-15T03:00:10.867Z,3.27
2019-05-15T03:02:41.410Z,3.53
2019-05-15T03:05:09.802Z,2.97
2019-05-15T03:07:40.400Z,7.77
2019-05-15T03:10:09.847Z,13.50
2019-05-15T03:12:40.771Z,16.63
2019-05-15T03:15:10.016Z,12.47
2019-05-15T03:17:40.442Z,13.53
2019-05-15T03:20:11.264Z,7.97
2019-05-15T03:22:40.724Z,6.50
2019-05-15T03:25:10.900Z,21.37
2019-05-15T03:27:40.322Z,31.03
2019-05-15T03:30:13.099Z,5.33
2019-05-15T03:32:52.424Z,2.50
2019-05-15T03:35:14.505Z,3.30
2019-05-15T03:37:41.446Z,3.73
2019-05-15T03:40:10.908Z,5.77
2019-05-15T03:42:40.121Z,3.73
2019-05-15T03:45:10.425Z,4.50
2019-05-15T03:47:40.460Z,3.33
2019-05-15T03:50:10.105Z,2.97
2019-05-15T03:52:39.777Z,4.87
2019-05-15T03:55:10.791Z,5.40
2019-05-15T03:57:40.184Z,4.20
2019-05-15T04:00:09.927Z,6.00
2019-05-15T04:02:40.174Z,4.30
2019-05-15T04:05:11.961Z,4.07
2019-05-15T04:07:40.132Z,4.43
2019-05-15T04:10:09.989Z,4.90
2019-05-15T04:12:40.536Z,6.20
2019-05-15T04:15:10.628Z,6.72
2019-05-15T04:17:40.378Z,5.07
2019-05-15T04:20:10.350Z,5.90
2019-05-15T04:22:40.401Z,5.73
2019-05-15T04:25:10.299Z,5.97
2019-05-15T04:27:40.961Z,4.87
2019-05-15T04:30:10.661Z,5.97
2019-05-15T04:32:40.357Z,5.40
2019-05-15T04:35:09.915Z,5.60
2019-05-15T04:37:40.647Z,7.70
2019-05-15T04:40:10.041Z,6.03
2019-05-15T04:42:39.860Z,6.03
2019-05-15T04:45:10.819Z,6.63
2019-05-15T04:47:40.111Z,4.67
2019-05-15T04:50:09.558Z,3.83
2019-05-15T04:52:42.490Z,4.23
2019-05-15T04:55:10.557Z,7.00
2019-05-15T04:57:40.455Z,4.83
2019-05-15T05:00:10.245Z,4.60
2019-05-15T05:02:40.186Z,47.13
2019-05-15T05:05:10.320Z,5.23
2019-05-15T05:07:39.745Z,3.87
2019-05-15T05:10:09.889Z,3.70
2019-05-15T05:12:41.685Z,3.40
2019-05-15T05:15:09.432Z,3.50
2019-05-15T05:17:39.250Z,4.70
2019-05-15T05:20:08.466Z,6.10
2019-05-15T05:22:39.225Z,4.57
2019-05-15T05:25:08.386Z,4.63
2019-05-15T05:27:38.394Z,4.90
2019-05-15T05:30:08.488Z,4.30
2019-05-15T05:32:39.050Z,5.27
2019-05-15T05:35:08.472Z,5.50
2019-05-15T05:37:39.059Z,4.90
2019-05-15T05:40:08.871Z,5.70
2019-05-15T05:42:39.020Z,7.93
2019-05-15T05:45:09.229Z,8.63
2019-05-15T05:47:38.584Z,7.87
2019-05-15T05:50:08.559Z,6.93
2019-05-15T05:52:38.977Z,6.93
2019-05-15T05:55:09.218Z,8.67
2019-05-15T05:57:38.475Z,9.00
2019-05-15T06:00:09.263Z,8.87
2019-05-15T06:02:46.866Z,8.53
2019-05-15T06:05:08.843Z,15.37
2019-05-15T06:07:38.661Z,10.87
2019-05-15T06:10:08.976Z,9.70
2019-05-15T06:12:38.916Z,15.47
2019-05-15T06:15:08.903Z,12.77
2019-05-15T06:17:39.334Z,13.90
2019-05-15T06:20:08.430Z,11.37
2019-05-15T06:22:38.713Z,10.30
2019-05-15T06:25:11.229Z,11.20
2019-05-15T06:27:39.069Z,11.00
2019-05-15T06:30:14.675Z,15.67
2019-05-15T06:32:40.242Z,15.73
2019-05-15T06:35:09.296Z,14.17
2019-05-15T06:37:39.495Z,14.97
2019-05-15T06:40:08.767Z,16.77
2019-05-15T06:42:39.487Z,15.23
2019-05-15T06:45:10.115Z,14.80
2019-05-15T06:47:39.515Z,12.83
2019-05-15T06:50:10.027Z,15.73
2019-05-15T06:52:38.673Z,12.20
2019-05-15T06:55:09.446Z,14.60
2019-05-15T06:57:39.656Z,16.20
2019-05-15T07:00:09.637Z,13.90
2019-05-15T07:02:38.535Z,12.53
2019-05-15T07:05:08.250Z,14.20
2019-05-15T07:07:38.734Z,16.40
2019-05-15T07:10:08.965Z,14.10
2019-05-15T07:12:39.230Z,13.80
2019-05-15T07:15:09.187Z,12.83
2019-05-15T07:17:39.192Z,12.67
2019-05-15T07:20:09.162Z,11.67
2019-05-15T07:22:39.108Z,14.10
2019-05-15T07:25:09.102Z,13.53
2019-05-15T07:27:38.965Z,15.37
2019-05-15T07:30:11.819Z,14.50
2019-05-15T07:32:40.221Z,10.37
2019-05-15T07:35:09.475Z,11.43
2019-05-15T07:37:38.900Z,14.17
2019-05-15T07:40:09.453Z,11.87
2019-05-15T07:42:38.798Z,12.37
2019-05-15T07:45:09.201Z,11.07
2019-05-15T07:47:38.633Z,14.37
2019-05-15T07:50:10.588Z,11.93
2019-05-15T07:52:40.508Z,14.53
2019-05-15T07:55:10.026Z,11.30
2019-05-15T07:57:39.670Z,10.90
2019-05-15T08:00:10.945Z,9.27
2019-05-15T08:02:39.707Z,12.20
2019-05-15T08:05:09.262Z,11.23
2019-05-15T08:07:39.031Z,10.07
2019-05-15T08:10:08.864Z,9.67
2019-05-15T08:12:39.284Z,14.17
2019-05-15T08:15:13.364Z,8.60
2019-05-15T08:18:00.251Z,11.33
2019-05-15T08:20:18.501Z,10.97
2019-05-15T08:22:48.864Z,14.10
2019-05-15T08:25:31.055Z,9.03
2019-05-15T08:27:48.990Z,16.20
2019-05-15T08:30:20.544Z,11.43
2019-05-15T08:32:51.517Z,19.47
2019-05-15T08:35:20.176Z,12.47
2019-05-15T08:37:49.198Z,10.97
2019-05-15T08:40:18.544Z,18.07
2019-05-15T08:42:56.907Z,14.23
2019-05-15T08:45:18.898Z,15.30
2019-05-15T08:47:49.190Z,18.53
2019-05-15T08:50:18.449Z,15.07
2019-05-15T08:52:48.724Z,10.17
2019-05-15T08:55:20.035Z,16.90
2019-05-15T08:57:55.640Z,13.47
2019-05-15T09:00:18.791Z,13.07
2019-05-15T09:02:48.861Z,17.07
2019-05-15T09:05:20.536Z,13.67
2019-05-15T09:07:49.164Z,17.13
2019-05-15T09:10:18.605Z,14.30
2019-05-15T09:12:47.217Z,14.90
2019-05-15T09:15:18.506Z,14.47
2019-05-15T09:17:48.770Z,13.10
2019-05-15T09:20:19.624Z,14.47
2019-05-15T09:22:49.155Z,12.47
2019-05-15T09:25:19.313Z,10.30
2019-05-15T09:27:48.834Z,13.47
2019-05-15T09:30:18.417Z,13.27
2019-05-15T09:32:48.438Z,13.10
2019-05-15T09:35:20.446Z,9.43
2019-05-15T09:37:49.272Z,14.13
2019-05-15T09:40:18.823Z,13.00
2019-05-15T09:42:48.770Z,12.90
2019-05-15T09:45:18.051Z,14.43
2019-05-15T09:47:48.296Z,18.07
2019-05-15T09:50:19.403Z,13.83
2019-05-15T09:52:50.055Z,13.33
2019-05-15T09:55:19.328Z,11.87
2019-05-15T09:57:49.059Z,12.00
2019-05-15T10:00:20.066Z,12.23
2019-05-15T10:02:48.843Z,15.87
2019-05-15T10:05:18.742Z,16.40
2019-05-15T10:07:47.549Z,14.27
2019-05-15T10:10:19.235Z,26.97
2019-05-15T10:12:49.496Z,14.37
2019-05-15T10:15:18.748Z,17.90
2019-05-15T10:17:50.971Z,14.97
2019-05-15T10:20:18.581Z,16.40
2019-05-15T10:22:48.410Z,19.30
2019-05-15T10:25:19.019Z,16.27
2019-05-15T10:27:48.788Z,17.27
2019-05-15T10:30:18.973Z,17.67
2019-05-15T10:32:48.757Z,17.40
2019-05-15T10:35:27.506Z,17.03
2019-05-15T10:37:48.931Z,16.43
2019-05-15T10:40:20.358Z,22.93
2019-05-15T10:42:49.550Z,12.53
2019-05-15T10:45:19.383Z,22.13
2019-05-15T10:47:49.577Z,16.10
2019-05-15T10:50:19.345Z,20.03
2019-05-15T10:52:48.875Z,13.80
2019-05-15T10:55:18.893Z,15.07
2019-05-15T10:57:47.792Z,17.20
2019-05-15T11:00:19.491Z,15.33
2019-05-15T11:02:48.970Z,15.93
2019-05-15T11:05:18.479Z,18.77
2019-05-15T11:07:48.304Z,18.30
2019-05-15T11:10:18.630Z,20.13
2019-05-15T11:12:47.451Z,15.23
2019-05-15T11:15:18.478Z,17.87
2019-05-15T11:17:49.197Z,23.03
2019-05-15T11:20:18.783Z,21.80
2019-05-15T11:22:49.941Z,25.80
2019-05-15T11:25:18.122Z,20.17
2019-05-15T11:27:48.418Z,19.17
2019-05-15T11:30:19.174Z,17.23
2019-05-15T11:32:48.827Z,23.60
2019-05-15T11:35:18.881Z,23.90
2019-05-15T11:37:56.103Z,24.40
2019-05-15T11:40:18.991Z,27.07
2019-05-15T11:42:48.757Z,26.70
2019-05-15T11:45:18.606Z,22.80
2019-05-15T11:47:48.287Z,20.13
2019-05-15T11:50:20.587Z,22.10
2019-05-15T11:52:48.310Z,23.03
2019-05-15T11:55:17.322Z,23.40
2019-05-15T11:57:48.624Z,25.33
2019-05-15T12:00:26.499Z,25.37
2019-05-15T12:02:48.376Z,19.93
2019-05-15T12:05:18.243Z,23.43
2019-05-15T12:07:47.888Z,26.97
2019-05-15T12:10:18.499Z,22.27
2019-05-15T12:12:49.715Z,28.83
2019-05-15T12:15:19.266Z,23.77
2019-05-15T12:17:48.633Z,22.87
2019-05-15T12:20:19.345Z,20.53
2019-05-15T12:22:48.727Z,18.00
2019-05-15T12:25:17.698Z,24.93
2019-05-15T12:27:49.114Z,22.63
2019-05-15T12:30:19.959Z,19.23
2019-05-15T12:32:49.237Z,19.53
2019-05-15T12:35:20.474Z,21.37
2019-05-15T12:37:48.508Z,22.00
2019-05-15T13:00:21.979Z,18.27
2019-05-15T13:02:50.631Z,20.97
2019-05-15T13:05:19.329Z,18.60
2019-05-15T13:07:48.412Z,18.87
2019-05-15T13:10:18.396Z,17.10
2019-05-15T13:12:59.434Z,18.53
2019-05-15T13:15:18.969Z,17.80
2019-05-15T13:17:52.652Z,19.10
2019-05-15T13:20:18.944Z,18.60
2019-05-15T13:25:18.846Z,22.87
2019-05-15T13:27:48.818Z,22.80
2019-05-15T13:30:18.736Z,24.47
2019-05-15T13:32:49.612Z,38.90
2019-05-15T13:35:18.351Z,45.27
2019-05-15T13:37:49.542Z,25.73
2019-05-15T13:40:18.650Z,24.57
2019-05-15T13:42:48.263Z,22.03
2019-05-15T13:45:18.412Z,26.20
2019-05-15T13:47:47.067Z,21.43
2019-05-15T13:50:15.922Z,30.30
2019-05-15T13:52:44.561Z,23.40
2019-05-15T13:55:13.310Z,24.60
2019-05-15T13:57:41.952Z,22.73
2019-05-15T14:00:12.971Z,21.20
2019-05-15T14:02:41.612Z,25.33
2019-05-15T14:05:10.593Z,30.13
2019-05-15T14:07:48.856Z,27.13
2019-05-15T14:10:10.294Z,19.57
2019-05-15T14:12:39.403Z,26.13
2019-05-15T14:15:10.034Z,25.27
2019-05-15T14:17:38.687Z,24.23
2019-05-15T14:20:09.057Z,21.93
2019-05-15T14:22:39.069Z,23.37
2019-05-15T14:25:08.791Z,22.73
2019-05-15T14:27:39.668Z,23.57
2019-05-15T14:30:09.883Z,26.20
2019-05-15T14:32:39.266Z,29.63
2019-05-15T14:35:09.562Z,25.80
2019-05-15T14:37:38.186Z,32.53
2019-05-15T14:40:09.008Z,36.17
2019-05-15T14:42:39.598Z,32.03
2019-05-15T14:45:09.179Z,29.37
2019-05-15T14:47:39.003Z,30.60
2019-05-15T14:50:10.202Z,32.40
2019-05-15T14:52:39.174Z,30.63
2019-05-15T14:55:08.564Z,31.50
2019-05-15T14:57:39.234Z,26.00
2019-05-15T15:00:08.987Z,32.03
2019-05-15T15:02:38.897Z,29.10
2019-05-15T15:05:09.122Z,33.70
2019-05-15T15:07:38.649Z,37.47
2019-05-15T15:10:08.162Z,32.17
2019-05-15T15:32:45.679Z,27.90
2019-05-15T15:35:14.915Z,25.80
2019-05-15T15:37:43.557Z,25.00
2019-05-15T15:40:12.386Z,22.43
2019-05-15T15:42:40.952Z,24.37
2019-05-15T15:45:11.602Z,29.63
2019-05-15T15:47:40.116Z,23.40
2019-05-15T15:50:09.936Z,29.53
2019-05-15T15:52:38.887Z,31.47
2019-05-15T15:55:09.200Z,21.27
2019-05-15T15:57:39.725Z,28.40
2019-05-15T16:00:09.999Z,26.23
2019-05-15T16:02:41.127Z,20.43
2019-05-15T16:05:10.524Z,17.10
2019-05-15T16:07:39.335Z,18.23
2019-05-15T16:10:08.773Z,22.10
2019-05-15T16:12:38.745Z,27.87
2019-05-15T16:15:09.082Z,34.27
2019-05-15T16:17:38.734Z,23.90
2019-05-15T16:20:08.680Z,28.13
2019-05-15T16:22:38.286Z,27.33
2019-05-15T16:25:21.183Z,20.84
2019-05-15T16:27:49.830Z,26.93
2019-05-15T16:30:18.974Z,28.83
2019-05-15T16:32:47.600Z,24.00
2019-05-15T16:35:18.307Z,22.53
2019-05-15T16:37:48.997Z,49.67
2019-05-15T16:40:18.514Z,17.23
2019-05-15T16:42:48.847Z,24.23
2019-05-15T16:58:55.747Z,22.93
2019-05-15T17:04:18.257Z,25.83
2019-05-15T17:06:49.150Z,24.00
2019-05-15T17:09:21.451Z,31.23
2019-05-15T17:11:52.745Z,29.52
2019-05-15T17:14:21.697Z,31.80
2019-05-15T17:16:50.325Z,31.07
2019-05-15T17:19:18.986Z,31.43
2019-05-15T17:21:48.292Z,49.20
2019-05-15T17:24:17.049Z,32.60
2019-05-15T17:26:48.289Z,28.43
2019-05-15T17:29:18.359Z,13.77
2019-05-15T17:31:48.658Z,17.10
2019-05-15T17:34:18.009Z,10.07
2019-05-15T17:36:48.961Z,12.90
2019-05-15T17:39:20.070Z,12.23
2019-05-15T17:41:48.262Z,11.07
2019-05-15T17:44:17.210Z,13.03
2019-05-15T17:46:45.911Z,13.97
2019-05-15T17:49:15.626Z,43.90
2019-05-15T17:51:44.382Z,15.33
2019-05-15T17:54:18.185Z,11.06
2019-05-15T17:56:48.917Z,13.10
2019-05-15T17:59:17.756Z,13.23
2019-05-15T18:01:49.008Z,14.47
2019-05-15T18:04:18.939Z,10.73
2019-05-15T18:06:48.403Z,12.73
2019-05-15T18:09:18.845Z,12.57
2019-05-15T18:11:47.785Z,17.37
2019-05-15T18:14:16.509Z,15.07
2019-05-15T18:16:48.083Z,15.17
2019-05-15T18:19:18.921Z,16.47
2019-05-15T18:21:49.881Z,16.10
2019-05-15T18:24:18.521Z,14.73
2019-05-15T18:26:48.860Z,14.60
2019-05-15T18:29:17.873Z,17.30
2019-05-15T18:31:48.021Z,14.47
2019-05-15T18:34:18.784Z,21.80
2019-05-15T18:39:22.892Z,21.07
2019-05-15T18:41:51.607Z,15.70
2019-05-15T18:44:20.395Z,14.60
2019-05-15T18:46:49.088Z,18.90
2019-05-15T18:49:18.086Z,20.03
2019-05-15T18:51:47.905Z,15.93
2019-05-15T18:54:18.779Z,19.90
2019-05-15T18:56:48.997Z,17.50
2019-05-15T18:59:17.787Z,17.70
2019-05-15T19:01:47.991Z,19.83
2019-05-15T19:04:18.324Z,24.47
2019-05-15T19:06:47.264Z,29.93
2019-05-15T19:09:15.895Z,45.80
2019-05-15T19:11:44.544Z,21.93
2019-05-15T19:14:13.222Z,31.70
2019-05-15T19:16:41.877Z,28.57
2019-05-15T19:19:10.794Z,34.00
2019-05-15T19:21:39.429Z,31.27
2019-05-15T19:24:08.064Z,22.40
2019-05-15T19:26:36.702Z,18.03
2019-05-15T19:29:08.327Z,19.67
2019-05-15T19:31:39.030Z,14.53
2019-05-15T19:34:08.532Z,15.70
2019-05-15T19:36:38.212Z,15.53
2019-05-15T19:39:08.101Z,19.07
2019-05-15T19:41:38.268Z,22.37
2019-05-15T19:44:08.802Z,22.40
2019-05-15T19:46:38.680Z,20.47
2019-05-15T19:49:08.736Z,23.77
2019-05-15T19:51:38.175Z,24.27
2019-05-15T19:54:09.160Z,29.83
2019-05-15T19:56:37.465Z,30.97
2019-05-15T19:59:06.111Z,35.17
2019-05-15T20:01:34.756Z,24.70
2019-05-15T20:04:03.418Z,29.33
2019-05-15T20:06:32.049Z,28.57
2019-05-15T20:09:00.718Z,26.67
2019-05-15T20:11:29.380Z,37.37
2019-05-15T20:13:58.438Z,39.47
2019-05-15T20:16:28.433Z,48.97
2019-05-15T20:18:58.082Z,34.97
2019-05-15T20:21:28.822Z,37.33
2019-05-15T20:23:57.991Z,40.33
2019-05-15T20:26:28.632Z,40.00
2019-05-15T20:28:57.266Z,29.00
2019-05-15T20:31:28.242Z,27.77
2019-05-15T20:34:05.709Z,28.47
2019-05-15T20:36:26.853Z,23.33
2019-05-15T20:38:55.499Z,36.83
2019-05-15T20:41:24.155Z,29.87
2019-05-15T20:43:52.800Z,26.83
2019-05-15T20:46:21.454Z,28.57
2019-05-15T20:48:50.162Z,28.30
2019-05-15T20:51:18.915Z,36.73
2019-05-15T20:53:48.635Z,38.50
2019-05-15T20:56:17.513Z,31.07
2019-05-15T20:58:47.878Z,37.20
2019-05-15T21:01:18.343Z,40.17
2019-05-15T21:03:50.390Z,35.83
2019-05-15T21:06:17.941Z,33.67
2019-05-15T21:08:48.775Z,34.20
2019-05-15T21:11:18.076Z,39.17
2019-05-15T21:13:49.076Z,34.97
2019-05-15T21:16:18.732Z,40.27
2019-05-15T21:18:47.753Z,40.87
2019-05-15T21:21:18.895Z,44.17
2019-05-15T21:23:49.015Z,32.60
2019-05-15T21:26:18.825Z,34.00
2019-05-15T21:28:48.228Z,40.53
2019-05-15T21:31:21.744Z,31.60
2019-05-15T21:33:48.146Z,35.07
2019-05-15T21:36:19.403Z,37.47
2019-05-15T21:38:48.057Z,34.80
2019-05-15T21:41:18.897Z,41.00
2019-05-15T21:43:48.252Z,39.60
2019-05-15T21:46:18.879Z,36.30
2019-05-15T21:48:48.703Z,45.77
2019-05-15T21:51:18.737Z,34.53
2019-05-15T21:53:47.805Z,36.23
2019-05-15T21:56:18.626Z,35.77
2019-05-15T21:58:48.302Z,37.67
2019-05-15T22:01:19.719Z,36.47
2019-05-15T22:03:48.260Z,35.93
2019-05-15T22:06:18.550Z,32.77
2019-05-15T22:08:47.464Z,40.10
2019-05-15T22:11:18.737Z,33.43
2019-05-15T22:13:48.442Z,31.50
2019-05-15T22:16:18.640Z,34.73
2019-05-15T22:18:47.888Z,35.27
2019-05-15T22:21:18.621Z,35.47
2019-05-15T22:23:47.073Z,37.27
2019-05-15T22:26:18.502Z,35.57
2019-05-15T22:28:46.085Z,35.40
2019-05-15T22:31:14.776Z,39.07
2019-05-15T22:33:43.414Z,38.47
2019-05-15T22:36:12.059Z,35.67
2019-05-15T22:38:40.700Z,35.83
2019-05-15T22:41:10.597Z,41.33
2019-05-15T22:43:39.359Z,31.63
2019-05-15T22:46:10.884Z,36.23
2019-05-15T22:48:38.391Z,31.43
2019-05-15T22:51:07.127Z,35.20
2019-05-15T22:53:38.162Z,30.30
2019-05-15T22:56:06.150Z,36.67
2019-05-15T22:58:34.795Z,37.33
2019-05-15T23:01:03.453Z,38.40
2019-05-15T23:03:32.119Z,36.87
2019-05-15T23:06:00.759Z,38.37
2019-05-15T23:08:29.497Z,36.57
2019-05-15T23:10:58.677Z,30.07
2019-05-15T23:13:28.542Z,34.10
2019-05-15T23:15:58.482Z,31.80
2019-05-15T23:18:27.344Z,33.70
2019-05-15T23:20:55.981Z,34.93
2019-05-15T23:23:24.691Z,32.43
2019-05-15T23:25:53.382Z,28.10
2019-05-15T23:28:22.020Z,26.27
2019-05-15T23:30:50.669Z,27.77
2019-05-15T23:33:19.307Z,26.33
2019-05-15T23:35:48.524Z,24.50
2019-05-15T23:38:17.384Z,22.33
2019-05-15T23:40:48.159Z,27.53
2019-05-15T23:43:18.787Z,22.47
2019-05-15T23:45:48.372Z,25.33
2019-05-15T23:48:17.116Z,22.47
2019-05-15T23:50:45.755Z,22.00
2019-05-15T23:53:16.702Z,21.07
2019-05-15T23:55:44.686Z,24.60
2019-05-15T23:58:13.314Z,26.73
